sensor_id;sensor_type;location;lat;lon;timestamp;P1;durP1;ratioP1;P2;durP2;ratioP2
7213;SDS011;3648;50.614;13.830;2023-03-31T00:01:14;13.60;;;7.17;;
7213;SDS011;3648;50.614;13.830;2023-03-31T00:03:41;12.17;;;7.33;;
7213;SDS011;3648;50.614;13.830;2023-03-31T00:06:08;14.90;;;10.67;;
7213;SDS011;3648;50.614;13.830;2023-03-31T00:08:41;18.10;;;11.00;;
7213;SDS011;3648;50.614;13.830;2023-03-31T00:11:09;9.90;;;6.77;;
7213;SDS011;3648;50.614;13.830;2023-03-31T00:13:36;8.37;;;5.17;;
7213;SDS011;3648;50.614;13.830;2023-03-31T00:16:05;19.00;;;11.87;;
7213;SDS011;3648;50.614;13.830;2023-03-31T00:18:34;12.90;;;7.60;;
7213;SDS011;3648;50.614;13.830;2023-03-31T00:21:05;14.53;;;8.87;;
7213;SDS011;3648;50.614;13.830;2023-03-31T00:23:33;18.37;;;10.30;;
7213;SDS011;3648;50.614;13.830;2023-03-31T00:26:00;19.77;;;11.30;;
7213;SDS011;3648;50.614;13.830;2023-03-31T00:28:27;23.53;;;10.37;;
7213;SDS011;3648;50.614;13.830;2023-03-31T00:30:58;18.00;;;8.33;;
7213;SDS011;3648;50.614;13.830;2023-03-31T00:33:28;10.00;;;5.53;;
7213;SDS011;3648;50.614;13.830;2023-03-31T00:35:55;8.43;;;5.37;;
7213;SDS011;3648;50.614;13.830;2023-03-31T00:38:25;9.53;;;5.00;;
7213;SDS011;3648;50.614;13.830;2023-03-31T00:40:53;15.97;;;8.40;;
7213;SDS011;3648;50.614;13.830;2023-03-31T00:43:23;17.80;;;9.73;;
7213;SDS011;3648;50.614;13.830;2023-03-31T00:45:55;19.13;;;11.03;;
7213;SDS011;3648;50.614;13.830;2023-03-31T00:48:32;12.47;;;5.87;;
7213;SDS011;3648;50.614;13.830;2023-03-31T00:51:03;9.80;;;5.60;;
7213;SDS011;3648;50.614;13.830;2023-03-31T00:53:31;12.77;;;7.20;;
7213;SDS011;3648;50.614;13.830;2023-03-31T00:56:01;17.90;;;9.30;;
7213;SDS011;3648;50.614;13.830;2023-03-31T00:58:33;12.00;;;6.30;;
7213;SDS011;3648;50.614;13.830;2023-03-31T01:01:07;9.87;;;5.53;;
7213;SDS011;3648;50.614;13.830;2023-03-31T01:03:39;8.40;;;5.60;;
7213;SDS011;3648;50.614;13.830;2023-03-31T01:06:11;12.07;;;7.10;;
7213;SDS011;3648;50.614;13.830;2023-03-31T01:08:41;10.00;;;5.30;;
7213;SDS011;3648;50.614;13.830;2023-03-31T01:11:10;12.50;;;6.57;;
7213;SDS011;3648;50.614;13.830;2023-03-31T01:13:40;10.00;;;4.93;;
7213;SDS011;3648;50.614;13.830;2023-03-31T01:16:10;7.43;;;4.03;;
7213;SDS011;3648;50.614;13.830;2023-03-31T01:18:37;8.30;;;6.00;;
7213;SDS011;3648;50.614;13.830;2023-03-31T01:21:20;12.70;;;7.30;;
7213;SDS011;3648;50.614;13.830;2023-03-31T01:33:41;5.93;;;3.77;;
7213;SDS011;3648;50.614;13.830;2023-03-31T01:36:33;6.37;;;4.00;;
7213;SDS011;3648;50.614;13.830;2023-03-31T01:42:26;5.57;;;3.73;;
7213;SDS011;3648;50.614;13.830;2023-03-31T01:44:59;5.63;;;3.37;;
7213;SDS011;3648;50.614;13.830;2023-03-31T01:47:38;5.17;;;3.17;;
7213;SDS011;3648;50.614;13.830;2023-03-31T01:50:10;6.50;;;3.00;;
7213;SDS011;3648;50.614;13.830;2023-03-31T01:52:48;5.60;;;3.37;;
7213;SDS011;3648;50.614;13.830;2023-03-31T01:55:23;6.83;;;3.63;;
7213;SDS011;3648;50.614;13.830;2023-03-31T01:57:54;4.40;;;3.47;;
7213;SDS011;3648;50.614;13.830;2023-03-31T02:00:26;7.47;;;3.40;;
7213;SDS011;3648;50.614;13.830;2023-03-31T02:02:58;8.47;;;3.67;;
7213;SDS011;3648;50.614;13.830;2023-03-31T02:05:32;7.47;;;3.57;;
7213;SDS011;3648;50.614;13.830;2023-03-31T02:08:03;5.23;;;3.63;;
7213;SDS011;3648;50.614;13.830;2023-03-31T02:10:35;6.13;;;3.33;;
7213;SDS011;3648;50.614;13.830;2023-03-31T02:13:04;11.27;;;5.43;;
7213;SDS011;3648;50.614;13.830;2023-03-31T02:15:35;8.30;;;6.10;;
7213;SDS011;3648;50.614;13.830;2023-03-31T02:18:06;7.77;;;4.97;;
7213;SDS011;3648;50.614;13.830;2023-03-31T02:20:37;7.13;;;4.40;;
7213;SDS011;3648;50.614;13.830;2023-03-31T02:23:06;7.37;;;4.63;;
7213;SDS011;3648;50.614;13.830;2023-03-31T02:25:37;7.47;;;3.90;;
7213;SDS011;3648;50.614;13.830;2023-03-31T02:28:11;8.93;;;3.90;;
7213;SDS011;3648;50.614;13.830;2023-03-31T02:30:45;7.50;;;3.73;;
7213;SDS011;3648;50.614;13.830;2023-03-31T02:33:18;6.37;;;3.80;;
7213;SDS011;3648;50.614;13.830;2023-03-31T02:35:45;4.43;;;3.30;;
7213;SDS011;3648;50.614;13.830;2023-03-31T02:38:12;4.70;;;3.57;;
7213;SDS011;3648;50.614;13.830;2023-03-31T02:40:41;8.13;;;4.00;;
7213;SDS011;3648;50.614;13.830;2023-03-31T02:43:08;6.73;;;3.80;;
7213;SDS011;3648;50.614;13.830;2023-03-31T02:45:37;7.97;;;4.40;;
7213;SDS011;3648;50.614;13.830;2023-03-31T02:48:07;6.47;;;4.30;;
7213;SDS011;3648;50.614;13.830;2023-03-31T02:50:41;7.83;;;5.17;;
7213;SDS011;3648;50.614;13.830;2023-03-31T02:53:33;6.27;;;4.07;;
7213;SDS011;3648;50.614;13.830;2023-03-31T02:56:12;7.83;;;5.17;;
7213;SDS011;3648;50.614;13.830;2023-03-31T02:58:58;6.83;;;4.23;;
7213;SDS011;3648;50.614;13.830;2023-03-31T03:01:42;6.37;;;4.73;;
7213;SDS011;3648;50.614;13.830;2023-03-31T03:04:26;6.57;;;4.60;;
7213;SDS011;3648;50.614;13.830;2023-03-31T03:07:06;5.77;;;4.07;;
7213;SDS011;3648;50.614;13.830;2023-03-31T03:09:43;8.73;;;4.37;;
7213;SDS011;3648;50.614;13.830;2023-03-31T03:12:23;10.60;;;6.33;;
7213;SDS011;3648;50.614;13.830;2023-03-31T03:14:54;14.40;;;6.37;;
7213;SDS011;3648;50.614;13.830;2023-03-31T03:17:26;8.70;;;5.67;;
7213;SDS011;3648;50.614;13.830;2023-03-31T03:19:59;10.73;;;6.47;;
7213;SDS011;3648;50.614;13.830;2023-03-31T03:22:28;11.80;;;6.77;;
7213;SDS011;3648;50.614;13.830;2023-03-31T03:24:55;10.50;;;6.30;;
7213;SDS011;3648;50.614;13.830;2023-03-31T03:27:23;9.87;;;6.90;;
7213;SDS011;3648;50.614;13.830;2023-03-31T03:29:50;9.30;;;6.43;;
7213;SDS011;3648;50.614;13.830;2023-03-31T03:32:18;8.57;;;5.87;;
7213;SDS011;3648;50.614;13.830;2023-03-31T03:34:45;7.53;;;5.90;;
7213;SDS011;3648;50.614;13.830;2023-03-31T03:37:12;11.90;;;7.00;;
7213;SDS011;3648;50.614;13.830;2023-03-31T03:39:39;15.10;;;8.77;;
7213;SDS011;3648;50.614;13.830;2023-03-31T03:42:06;12.10;;;7.90;;
7213;SDS011;3648;50.614;13.830;2023-03-31T03:44:37;13.00;;;9.00;;
7213;SDS011;3648;50.614;13.830;2023-03-31T03:47:04;9.43;;;7.37;;
7213;SDS011;3648;50.614;13.830;2023-03-31T03:49:31;9.50;;;7.43;;
7213;SDS011;3648;50.614;13.830;2023-03-31T03:51:58;10.53;;;6.80;;
7213;SDS011;3648;50.614;13.830;2023-03-31T03:54:25;8.80;;;7.00;;
7213;SDS011;3648;50.614;13.830;2023-03-31T03:56:52;9.13;;;6.17;;
7213;SDS011;3648;50.614;13.830;2023-03-31T03:59:19;6.67;;;5.60;;
7213;SDS011;3648;50.614;13.830;2023-03-31T04:01:48;7.77;;;6.03;;
7213;SDS011;3648;50.614;13.830;2023-03-31T04:04:16;6.13;;;4.87;;
7213;SDS011;3648;50.614;13.830;2023-03-31T04:06:44;6.33;;;5.20;;
7213;SDS011;3648;50.614;13.830;2023-03-31T04:09:11;6.50;;;5.20;;
7213;SDS011;3648;50.614;13.830;2023-03-31T04:11:38;12.43;;;9.07;;
7213;SDS011;3648;50.614;13.830;2023-03-31T04:14:05;10.83;;;7.87;;
7213;SDS011;3648;50.614;13.830;2023-03-31T04:16:32;13.80;;;8.83;;
7213;SDS011;3648;50.614;13.830;2023-03-31T04:19:01;12.50;;;8.40;;
7213;SDS011;3648;50.614;13.830;2023-03-31T04:21:29;12.47;;;8.60;;
7213;SDS011;3648;50.614;13.830;2023-03-31T04:23:59;16.27;;;8.40;;
7213;SDS011;3648;50.614;13.830;2023-03-31T04:26:29;12.37;;;9.07;;
7213;SDS011;3648;50.614;13.830;2023-03-31T04:29:03;9.97;;;7.37;;
7213;SDS011;3648;50.614;13.830;2023-03-31T04:31:31;11.60;;;7.10;;
7213;SDS011;3648;50.614;13.830;2023-03-31T04:34:04;10.43;;;6.93;;
7213;SDS011;3648;50.614;13.830;2023-03-31T04:36:37;7.20;;;5.53;;
7213;SDS011;3648;50.614;13.830;2023-03-31T04:39:06;7.10;;;6.10;;
7213;SDS011;3648;50.614;13.830;2023-03-31T04:41:35;7.93;;;5.43;;
7213;SDS011;3648;50.614;13.830;2023-03-31T04:44:03;8.43;;;5.60;;
7213;SDS011;3648;50.614;13.830;2023-03-31T04:46:30;7.43;;;5.37;;
7213;SDS011;3648;50.614;13.830;2023-03-31T04:48:58;6.63;;;5.00;;
7213;SDS011;3648;50.614;13.830;2023-03-31T04:51:27;5.93;;;4.97;;
7213;SDS011;3648;50.614;13.830;2023-03-31T04:53:54;6.13;;;5.17;;
7213;SDS011;3648;50.614;13.830;2023-03-31T04:56:21;5.50;;;4.63;;
7213;SDS011;3648;50.614;13.830;2023-03-31T04:58:48;8.93;;;5.20;;
7213;SDS011;3648;50.614;13.830;2023-03-31T05:01:15;8.27;;;4.80;;
7213;SDS011;3648;50.614;13.830;2023-03-31T05:03:43;5.07;;;4.63;;
7213;SDS011;3648;50.614;13.830;2023-03-31T05:06:11;6.77;;;4.53;;
7213;SDS011;3648;50.614;13.830;2023-03-31T05:08:40;7.50;;;4.80;;
7213;SDS011;3648;50.614;13.830;2023-03-31T05:11:07;7.23;;;5.43;;
7213;SDS011;3648;50.614;13.830;2023-03-31T05:13:35;8.40;;;6.23;;
7213;SDS011;3648;50.614;13.830;2023-03-31T05:16:05;6.40;;;5.67;;
7213;SDS011;3648;50.614;13.830;2023-03-31T05:18:33;5.60;;;5.10;;
7213;SDS011;3648;50.614;13.830;2023-03-31T05:21:07;7.40;;;5.43;;
7213;SDS011;3648;50.614;13.830;2023-03-31T05:23:38;29.63;;;19.63;;
7213;SDS011;3648;50.614;13.830;2023-03-31T05:26:06;26.47;;;20.43;;
7213;SDS011;3648;50.614;13.830;2023-03-31T05:28:35;30.87;;;21.00;;
7213;SDS011;3648;50.614;13.830;2023-03-31T05:31:02;37.27;;;28.90;;
7213;SDS011;3648;50.614;13.830;2023-03-31T05:33:30;32.37;;;24.07;;
7213;SDS011;3648;50.614;13.830;2023-03-31T05:35:58;23.70;;;18.07;;
7213;SDS011;3648;50.614;13.830;2023-03-31T05:38:25;20.73;;;14.20;;
7213;SDS011;3648;50.614;13.830;2023-03-31T05:40:55;18.57;;;13.43;;
7213;SDS011;3648;50.614;13.830;2023-03-31T05:43:23;15.77;;;9.77;;
7213;SDS011;3648;50.614;13.830;2023-03-31T05:45:51;10.60;;;8.37;;
7213;SDS011;3648;50.614;13.830;2023-03-31T05:48:18;11.07;;;7.47;;
7213;SDS011;3648;50.614;13.830;2023-03-31T05:50:45;10.20;;;7.53;;
7213;SDS011;3648;50.614;13.830;2023-03-31T05:53:12;10.27;;;6.80;;
7213;SDS011;3648;50.614;13.830;2023-03-31T05:55:39;9.70;;;8.03;;
7213;SDS011;3648;50.614;13.830;2023-03-31T05:58:06;10.67;;;7.97;;
7213;SDS011;3648;50.614;13.830;2023-03-31T06:00:35;10.23;;;6.10;;
7213;SDS011;3648;50.614;13.830;2023-03-31T06:03:02;7.40;;;5.90;;
7213;SDS011;3648;50.614;13.830;2023-03-31T06:05:31;7.47;;;5.30;;
7213;SDS011;3648;50.614;13.830;2023-03-31T06:07:59;8.20;;;5.80;;
7213;SDS011;3648;50.614;13.830;2023-03-31T06:10:26;9.40;;;6.23;;
7213;SDS011;3648;50.614;13.830;2023-03-31T06:12:52;8.17;;;6.00;;
7213;SDS011;3648;50.614;13.830;2023-03-31T06:15:19;8.93;;;6.67;;
7213;SDS011;3648;50.614;13.830;2023-03-31T06:17:47;10.03;;;6.30;;
7213;SDS011;3648;50.614;13.830;2023-03-31T06:20:14;9.97;;;6.57;;
7213;SDS011;3648;50.614;13.830;2023-03-31T06:22:41;10.17;;;6.20;;
7213;SDS011;3648;50.614;13.830;2023-03-31T06:25:08;7.53;;;5.33;;
7213;SDS011;3648;50.614;13.830;2023-03-31T06:27:35;6.73;;;4.40;;
7213;SDS011;3648;50.614;13.830;2023-03-31T06:30:02;6.27;;;4.03;;
7213;SDS011;3648;50.614;13.830;2023-03-31T06:32:30;6.13;;;3.97;;
7213;SDS011;3648;50.614;13.830;2023-03-31T06:34:58;5.50;;;3.60;;
7213;SDS011;3648;50.614;13.830;2023-03-31T06:37:25;5.13;;;3.23;;
7213;SDS011;3648;50.614;13.830;2023-03-31T06:39:52;5.20;;;3.90;;
7213;SDS011;3648;50.614;13.830;2023-03-31T06:42:19;8.93;;;5.50;;
7213;SDS011;3648;50.614;13.830;2023-03-31T06:44:46;8.50;;;4.70;;
7213;SDS011;3648;50.614;13.830;2023-03-31T06:47:13;7.07;;;4.30;;
7213;SDS011;3648;50.614;13.830;2023-03-31T06:49:40;7.83;;;4.00;;
7213;SDS011;3648;50.614;13.830;2023-03-31T06:52:08;4.27;;;3.03;;
7213;SDS011;3648;50.614;13.830;2023-03-31T06:54:35;5.70;;;3.60;;
7213;SDS011;3648;50.614;13.830;2023-03-31T06:57:02;6.17;;;2.87;;
7213;SDS011;3648;50.614;13.830;2023-03-31T06:59:29;4.77;;;2.63;;
7213;SDS011;3648;50.614;13.830;2023-03-31T07:01:56;6.70;;;3.17;;
7213;SDS011;3648;50.614;13.830;2023-03-31T07:04:23;6.90;;;3.40;;
7213;SDS011;3648;50.614;13.830;2023-03-31T07:06:50;5.80;;;3.37;;
7213;SDS011;3648;50.614;13.830;2023-03-31T07:09:18;6.93;;;3.70;;
7213;SDS011;3648;50.614;13.830;2023-03-31T07:11:47;5.37;;;3.10;;
7213;SDS011;3648;50.614;13.830;2023-03-31T07:14:14;7.50;;;3.03;;
7213;SDS011;3648;50.614;13.830;2023-03-31T07:16:41;4.70;;;2.70;;
7213;SDS011;3648;50.614;13.830;2023-03-31T07:32:38;6.60;;;4.20;;
7213;SDS011;3648;50.614;13.830;2023-03-31T07:35:07;7.63;;;4.30;;
7213;SDS011;3648;50.614;13.830;2023-03-31T07:37:36;6.37;;;3.77;;
7213;SDS011;3648;50.614;13.830;2023-03-31T07:40:06;5.27;;;4.03;;
7213;SDS011;3648;50.614;13.830;2023-03-31T07:42:34;5.90;;;3.80;;
7213;SDS011;3648;50.614;13.830;2023-03-31T07:45:03;8.07;;;5.87;;
7213;SDS011;3648;50.614;13.830;2023-03-31T07:47:33;12.23;;;6.13;;
7213;SDS011;3648;50.614;13.830;2023-03-31T07:50:05;9.70;;;5.93;;
7213;SDS011;3648;50.614;13.830;2023-03-31T07:52:34;13.83;;;7.60;;
7213;SDS011;3648;50.614;13.830;2023-03-31T07:55:02;7.60;;;4.70;;
7213;SDS011;3648;50.614;13.830;2023-03-31T07:57:31;12.33;;;8.13;;
7213;SDS011;3648;50.614;13.830;2023-03-31T07:59:59;12.20;;;8.00;;
7213;SDS011;3648;50.614;13.830;2023-03-31T08:02:31;16.50;;;9.43;;
7213;SDS011;3648;50.614;13.830;2023-03-31T08:05:00;12.77;;;7.80;;
7213;SDS011;3648;50.614;13.830;2023-03-31T08:07:31;17.60;;;8.03;;
7213;SDS011;3648;50.614;13.830;2023-03-31T08:10:00;11.80;;;6.27;;
7213;SDS011;3648;50.614;13.830;2023-03-31T08:12:29;13.57;;;6.70;;
7213;SDS011;3648;50.614;13.830;2023-03-31T08:14:57;8.47;;;5.63;;
7213;SDS011;3648;50.614;13.830;2023-03-31T08:17:26;15.43;;;7.97;;
7213;SDS011;3648;50.614;13.830;2023-03-31T08:19:54;13.20;;;7.20;;
7213;SDS011;3648;50.614;13.830;2023-03-31T08:22:22;8.60;;;5.50;;
7213;SDS011;3648;50.614;13.830;2023-03-31T08:24:52;10.13;;;5.17;;
7213;SDS011;3648;50.614;13.830;2023-03-31T08:27:20;12.07;;;6.67;;
7213;SDS011;3648;50.614;13.830;2023-03-31T08:29:50;10.27;;;5.37;;
7213;SDS011;3648;50.614;13.830;2023-03-31T08:32:20;8.70;;;4.97;;
7213;SDS011;3648;50.614;13.830;2023-03-31T08:34:50;6.60;;;4.53;;
7213;SDS011;3648;50.614;13.830;2023-03-31T08:37:18;7.07;;;4.10;;
7213;SDS011;3648;50.614;13.830;2023-03-31T08:39:45;5.90;;;3.67;;
7213;SDS011;3648;50.614;13.830;2023-03-31T08:42:14;5.80;;;3.77;;
7213;SDS011;3648;50.614;13.830;2023-03-31T08:44:49;6.47;;;3.80;;
7213;SDS011;3648;50.614;13.830;2023-03-31T08:47:23;11.40;;;6.10;;
7213;SDS011;3648;50.614;13.830;2023-03-31T08:49:53;11.53;;;7.53;;
7213;SDS011;3648;50.614;13.830;2023-03-31T08:52:24;13.10;;;7.57;;
7213;SDS011;3648;50.614;13.830;2023-03-31T08:54:55;14.60;;;7.37;;
7213;SDS011;3648;50.614;13.830;2023-03-31T08:57:29;19.00;;;11.70;;
7213;SDS011;3648;50.614;13.830;2023-03-31T09:00:01;21.27;;;12.03;;
7213;SDS011;3648;50.614;13.830;2023-03-31T09:02:32;18.23;;;10.27;;
7213;SDS011;3648;50.614;13.830;2023-03-31T09:08:04;13.23;;;6.97;;
7213;SDS011;3648;50.614;13.830;2023-03-31T09:10:40;10.70;;;5.10;;
7213;SDS011;3648;50.614;13.830;2023-03-31T09:13:21;6.20;;;4.33;;
7213;SDS011;3648;50.614;13.830;2023-03-31T09:16:03;5.97;;;3.80;;
7213;SDS011;3648;50.614;13.830;2023-03-31T09:18:38;6.97;;;4.97;;
7213;SDS011;3648;50.614;13.830;2023-03-31T09:21:11;13.23;;;8.13;;
7213;SDS011;3648;50.614;13.830;2023-03-31T09:23:44;16.87;;;9.30;;
7213;SDS011;3648;50.614;13.830;2023-03-31T09:26:17;9.40;;;6.00;;
7213;SDS011;3648;50.614;13.830;2023-03-31T09:28:52;6.90;;;4.83;;
7213;SDS011;3648;50.614;13.830;2023-03-31T09:31:21;9.20;;;5.73;;
7213;SDS011;3648;50.614;13.830;2023-03-31T09:33:50;10.00;;;4.37;;
7213;SDS011;3648;50.614;13.830;2023-03-31T09:36:20;6.20;;;4.13;;
7213;SDS011;3648;50.614;13.830;2023-03-31T09:38:48;6.63;;;3.60;;
7213;SDS011;3648;50.614;13.830;2023-03-31T09:41:15;7.87;;;3.40;;
7213;SDS011;3648;50.614;13.830;2023-03-31T09:43:44;5.13;;;2.87;;
7213;SDS011;3648;50.614;13.830;2023-03-31T09:46:16;3.63;;;2.57;;
7213;SDS011;3648;50.614;13.830;2023-03-31T09:48:51;6.93;;;2.70;;
7213;SDS011;3648;50.614;13.830;2023-03-31T09:51:22;5.77;;;3.20;;
7213;SDS011;3648;50.614;13.830;2023-03-31T09:53:55;3.20;;;2.23;;
7213;SDS011;3648;50.614;13.830;2023-03-31T09:59:18;3.57;;;2.30;;
7213;SDS011;3648;50.614;13.830;2023-03-31T10:01:48;3.20;;;2.40;;
7213;SDS011;3648;50.614;13.830;2023-03-31T10:04:19;5.70;;;3.10;;
7213;SDS011;3648;50.614;13.830;2023-03-31T10:06:48;4.13;;;2.80;;
7213;SDS011;3648;50.614;13.830;2023-03-31T10:09:17;6.17;;;3.90;;
7213;SDS011;3648;50.614;13.830;2023-03-31T10:11:57;6.43;;;4.17;;
7213;SDS011;3648;50.614;13.830;2023-03-31T10:14:32;4.67;;;3.37;;
7213;SDS011;3648;50.614;13.830;2023-03-31T10:17:11;7.43;;;4.13;;
7213;SDS011;3648;50.614;13.830;2023-03-31T10:19:46;9.93;;;6.67;;
7213;SDS011;3648;50.614;13.830;2023-03-31T10:22:15;12.07;;;5.43;;
7213;SDS011;3648;50.614;13.830;2023-03-31T10:24:51;6.07;;;4.00;;
7213;SDS011;3648;50.614;13.830;2023-03-31T10:27:20;5.63;;;3.83;;
7213;SDS011;3648;50.614;13.830;2023-03-31T10:29:50;6.37;;;3.30;;
7213;SDS011;3648;50.614;13.830;2023-03-31T10:32:22;5.53;;;3.27;;
7213;SDS011;3648;50.614;13.830;2023-03-31T10:34:52;4.93;;;3.30;;
7213;SDS011;3648;50.614;13.830;2023-03-31T10:37:22;6.17;;;3.90;;
7213;SDS011;3648;50.614;13.830;2023-03-31T10:39:55;7.10;;;3.60;;
7213;SDS011;3648;50.614;13.830;2023-03-31T10:42:22;4.53;;;3.07;;
7213;SDS011;3648;50.614;13.830;2023-03-31T10:44:51;4.77;;;3.67;;
7213;SDS011;3648;50.614;13.830;2023-03-31T10:47:38;7.40;;;3.43;;
7213;SDS011;3648;50.614;13.830;2023-03-31T10:50:11;6.23;;;3.13;;
7213;SDS011;3648;50.614;13.830;2023-03-31T10:52:42;5.93;;;3.27;;
7213;SDS011;3648;50.614;13.830;2023-03-31T10:55:11;4.90;;;3.10;;
7213;SDS011;3648;50.614;13.830;2023-03-31T10:57:41;9.43;;;5.73;;
7213;SDS011;3648;50.614;13.830;2023-03-31T11:00:17;8.67;;;4.70;;
7213;SDS011;3648;50.614;13.830;2023-03-31T11:02:56;8.47;;;3.87;;
7213;SDS011;3648;50.614;13.830;2023-03-31T11:05:51;5.20;;;3.40;;
7213;SDS011;3648;50.614;13.830;2023-03-31T11:08:28;4.07;;;3.17;;
7213;SDS011;3648;50.614;13.830;2023-03-31T11:11:26;5.70;;;3.17;;
7213;SDS011;3648;50.614;13.830;2023-03-31T11:14:06;7.00;;;3.67;;
7213;SDS011;3648;50.614;13.830;2023-03-31T11:16:42;7.50;;;4.27;;
7213;SDS011;3648;50.614;13.830;2023-03-31T11:19:24;7.23;;;4.13;;
7213;SDS011;3648;50.614;13.830;2023-03-31T11:22:01;8.90;;;6.03;;
7213;SDS011;3648;50.614;13.830;2023-03-31T11:24:42;15.67;;;11.27;;
7213;SDS011;3648;50.614;13.830;2023-03-31T11:27:33;16.17;;;11.87;;
7213;SDS011;3648;50.614;13.830;2023-03-31T11:30:13;20.47;;;14.23;;
7213;SDS011;3648;50.614;13.830;2023-03-31T11:32:47;18.80;;;12.53;;
7213;SDS011;3648;50.614;13.830;2023-03-31T11:35:38;21.73;;;14.50;;
7213;SDS011;3648;50.614;13.830;2023-03-31T11:38:19;13.80;;;8.43;;
7213;SDS011;3648;50.614;13.830;2023-03-31T11:41:00;11.77;;;7.53;;
7213;SDS011;3648;50.614;13.830;2023-03-31T11:43:31;8.97;;;5.87;;
7213;SDS011;3648;50.614;13.830;2023-03-31T11:46:02;9.23;;;5.73;;
7213;SDS011;3648;50.614;13.830;2023-03-31T11:48:36;21.67;;;13.90;;
7213;SDS011;3648;50.614;13.830;2023-03-31T11:51:08;12.83;;;7.97;;
7213;SDS011;3648;50.614;13.830;2023-03-31T11:53:41;10.63;;;6.50;;
7213;SDS011;3648;50.614;13.830;2023-03-31T11:56:10;8.70;;;4.93;;
7213;SDS011;3648;50.614;13.830;2023-03-31T11:58:39;7.57;;;4.90;;
7213;SDS011;3648;50.614;13.830;2023-03-31T12:01:13;5.87;;;3.97;;
7213;SDS011;3648;50.614;13.830;2023-03-31T12:03:46;5.77;;;4.03;;
7213;SDS011;3648;50.614;13.830;2023-03-31T12:06:21;6.83;;;4.50;;
7213;SDS011;3648;50.614;13.830;2023-03-31T12:08:56;8.30;;;6.63;;
7213;SDS011;3648;50.614;13.830;2023-03-31T12:11:31;12.30;;;9.30;;
7213;SDS011;3648;50.614;13.830;2023-03-31T12:14:07;17.07;;;11.30;;
7213;SDS011;3648;50.614;13.830;2023-03-31T12:16:52;21.03;;;13.03;;
7213;SDS011;3648;50.614;13.830;2023-03-31T12:19:24;19.97;;;12.70;;
7213;SDS011;3648;50.614;13.830;2023-03-31T12:21:57;14.30;;;8.87;;
7213;SDS011;3648;50.614;13.830;2023-03-31T12:24:32;12.87;;;7.73;;
7213;SDS011;3648;50.614;13.830;2023-03-31T12:27:03;9.93;;;6.13;;
7213;SDS011;3648;50.614;13.830;2023-03-31T12:29:38;8.60;;;6.83;;
7213;SDS011;3648;50.614;13.830;2023-03-31T12:32:10;7.53;;;5.97;;
7213;SDS011;3648;50.614;13.830;2023-03-31T12:34:42;7.17;;;4.67;;
7213;SDS011;3648;50.614;13.830;2023-03-31T12:40:28;6.57;;;4.60;;
7213;SDS011;3648;50.614;13.830;2023-03-31T12:43:17;4.93;;;3.30;;
7213;SDS011;3648;50.614;13.830;2023-03-31T12:45:55;5.07;;;3.60;;
7213;SDS011;3648;50.614;13.830;2023-03-31T12:51:44;4.93;;;3.53;;
7213;SDS011;3648;50.614;13.830;2023-03-31T12:54:31;5.10;;;3.80;;
7213;SDS011;3648;50.614;13.830;2023-03-31T12:57:19;6.00;;;3.60;;
7213;SDS011;3648;50.614;13.830;2023-03-31T13:00:08;6.37;;;4.73;;
7213;SDS011;3648;50.614;13.830;2023-03-31T13:02:46;8.13;;;5.43;;
7213;SDS011;3648;50.614;13.830;2023-03-31T13:08:11;11.03;;;5.90;;
7213;SDS011;3648;50.614;13.830;2023-03-31T13:11:19;13.63;;;8.57;;
7213;SDS011;3648;50.614;13.830;2023-03-31T13:13:55;9.30;;;6.60;;
7213;SDS011;3648;50.614;13.830;2023-03-31T13:16:26;8.57;;;6.00;;
7213;SDS011;3648;50.614;13.830;2023-03-31T13:18:53;6.50;;;5.10;;
7213;SDS011;3648;50.614;13.830;2023-03-31T13:21:21;6.67;;;4.87;;
7213;SDS011;3648;50.614;13.830;2023-03-31T13:23:49;5.07;;;3.70;;
7213;SDS011;3648;50.614;13.830;2023-03-31T13:26:38;4.73;;;3.57;;
7213;SDS011;3648;50.614;13.830;2023-03-31T13:29:18;6.17;;;3.70;;
7213;SDS011;3648;50.614;13.830;2023-03-31T13:34:58;4.53;;;3.03;;
7213;SDS011;3648;50.614;13.830;2023-03-31T13:37:34;7.17;;;4.77;;
7213;SDS011;3648;50.614;13.830;2023-03-31T13:43:39;8.23;;;6.37;;
7213;SDS011;3648;50.614;13.830;2023-03-31T13:46:35;8.60;;;6.03;;
7213;SDS011;3648;50.614;13.830;2023-03-31T13:49:25;6.77;;;5.40;;
7213;SDS011;3648;50.614;13.830;2023-03-31T13:52:12;7.23;;;5.43;;
7213;SDS011;3648;50.614;13.830;2023-03-31T14:00:52;4.63;;;3.00;;
7213;SDS011;3648;50.614;13.830;2023-03-31T14:03:28;3.53;;;3.23;;
7213;SDS011;3648;50.614;13.830;2023-03-31T14:06:04;3.10;;;2.43;;
7213;SDS011;3648;50.614;13.830;2023-03-31T14:08:42;4.80;;;2.40;;
7213;SDS011;3648;50.614;13.830;2023-03-31T14:11:16;3.17;;;2.50;;
7213;SDS011;3648;50.614;13.830;2023-03-31T14:13:57;2.60;;;2.03;;
7213;SDS011;3648;50.614;13.830;2023-03-31T14:16:27;2.70;;;2.10;;
7213;SDS011;3648;50.614;13.830;2023-03-31T14:18:58;4.20;;;2.73;;
7213;SDS011;3648;50.614;13.830;2023-03-31T14:21:37;3.23;;;2.70;;
7213;SDS011;3648;50.614;13.830;2023-03-31T14:24:12;3.63;;;2.60;;
7213;SDS011;3648;50.614;13.830;2023-03-31T14:26:53;5.17;;;3.53;;
7213;SDS011;3648;50.614;13.830;2023-03-31T14:29:27;8.47;;;6.43;;
7213;SDS011;3648;50.614;13.830;2023-03-31T14:32:05;9.67;;;7.63;;
7213;SDS011;3648;50.614;13.830;2023-03-31T14:34:55;9.97;;;6.30;;
7213;SDS011;3648;50.614;13.830;2023-03-31T14:37:30;8.17;;;5.07;;
7213;SDS011;3648;50.614;13.830;2023-03-31T14:39:57;8.03;;;5.00;;
7213;SDS011;3648;50.614;13.830;2023-03-31T14:42:28;7.40;;;5.10;;
7213;SDS011;3648;50.614;13.830;2023-03-31T14:45:03;10.07;;;6.50;;
7213;SDS011;3648;50.614;13.830;2023-03-31T14:47:35;8.23;;;5.50;;
7213;SDS011;3648;50.614;13.830;2023-03-31T14:50:04;5.07;;;3.70;;
7213;SDS011;3648;50.614;13.830;2023-03-31T14:52:38;4.47;;;3.03;;
7213;SDS011;3648;50.614;13.830;2023-03-31T14:55:05;4.83;;;3.20;;
7213;SDS011;3648;50.614;13.830;2023-03-31T14:57:39;4.50;;;4.03;;
7213;SDS011;3648;50.614;13.830;2023-03-31T15:00:07;6.03;;;4.03;;
7213;SDS011;3648;50.614;13.830;2023-03-31T15:02:41;9.53;;;6.87;;
7213;SDS011;3648;50.614;13.830;2023-03-31T15:05:14;8.57;;;5.13;;
7213;SDS011;3648;50.614;13.830;2023-03-31T15:07:49;14.87;;;7.70;;
7213;SDS011;3648;50.614;13.830;2023-03-31T15:10:17;10.97;;;6.27;;
7213;SDS011;3648;50.614;13.830;2023-03-31T15:12:46;9.07;;;4.80;;
7213;SDS011;3648;50.614;13.830;2023-03-31T15:15:14;6.50;;;4.33;;
7213;SDS011;3648;50.614;13.830;2023-03-31T15:17:46;9.30;;;5.03;;
7213;SDS011;3648;50.614;13.830;2023-03-31T15:20:23;14.73;;;8.47;;
7213;SDS011;3648;50.614;13.830;2023-03-31T15:22:53;17.53;;;8.67;;
7213;SDS011;3648;50.614;13.830;2023-03-31T15:25:21;13.83;;;7.07;;
7213;SDS011;3648;50.614;13.830;2023-03-31T15:27:52;7.90;;;4.83;;
7213;SDS011;3648;50.614;13.830;2023-03-31T15:30:24;9.57;;;5.03;;
7213;SDS011;3648;50.614;13.830;2023-03-31T15:32:55;6.97;;;4.63;;
7213;SDS011;3648;50.614;13.830;2023-03-31T15:35:24;6.97;;;4.60;;
7213;SDS011;3648;50.614;13.830;2023-03-31T15:37:54;7.73;;;4.97;;
7213;SDS011;3648;50.614;13.830;2023-03-31T15:40:24;6.77;;;4.60;;
7213;SDS011;3648;50.614;13.830;2023-03-31T15:42:53;5.17;;;3.20;;
7213;SDS011;3648;50.614;13.830;2023-03-31T15:45:39;4.00;;;2.67;;
7213;SDS011;3648;50.614;13.830;2023-03-31T15:48:15;4.40;;;2.60;;
7213;SDS011;3648;50.614;13.830;2023-03-31T15:50:45;4.87;;;2.27;;
7213;SDS011;3648;50.614;13.830;2023-03-31T15:53:20;4.87;;;2.83;;
7213;SDS011;3648;50.614;13.830;2023-03-31T15:55:54;5.10;;;2.10;;
7213;SDS011;3648;50.614;13.830;2023-03-31T15:58:24;3.13;;;1.93;;
7213;SDS011;3648;50.614;13.830;2023-03-31T16:01:13;2.90;;;2.20;;
7213;SDS011;3648;50.614;13.830;2023-03-31T16:03:43;3.43;;;2.27;;
7213;SDS011;3648;50.614;13.830;2023-03-31T16:06:14;4.60;;;1.73;;
7213;SDS011;3648;50.614;13.830;2023-03-31T16:08:47;2.07;;;1.37;;
7213;SDS011;3648;50.614;13.830;2023-03-31T16:11:18;2.67;;;1.50;;
7213;SDS011;3648;50.614;13.830;2023-03-31T16:13:49;3.87;;;1.80;;
7213;SDS011;3648;50.614;13.830;2023-03-31T16:16:21;1.80;;;1.27;;
7213;SDS011;3648;50.614;13.830;2023-03-31T16:18:53;2.67;;;1.63;;